sensor_id;sensor_type;location;lat;lon;timestamp;P1;durP1;ratioP1;P2;durP2;ratioP2
19985;SDS011;10154;52.474;10.768;2022-12-01T00:02:21;142.77;;;42.10;;
19985;SDS011;10154;52.474;10.768;2022-12-01T00:04:48;146.23;;;43.27;;
19985;SDS011;10154;52.474;10.768;2022-12-01T00:07:14;122.83;;;38.63;;
19985;SDS011;10154;52.474;10.768;2022-12-01T00:09:39;144.43;;;42.00;;
19985;SDS011;10154;52.474;10.768;2022-12-01T00:12:23;131.73;;;39.63;;
19985;SDS011;10154;52.474;10.768;2022-12-01T00:14:49;135.27;;;39.60;;
19985;SDS011;10154;52.474;10.768;2022-12-01T00:17:19;139.17;;;41.70;;
19985;SDS011;10154;52.474;10.768;2022-12-01T00:19:45;128.80;;;37.27;;
19985;SDS011;10154;52.474;10.768;2022-12-01T00:22:10;136.50;;;39.83;;
19985;SDS011;10154;52.474;10.768;2022-12-01T00:24:36;143.43;;;41.73;;
19985;SDS011;10154;52.474;10.768;2022-12-01T00:27:01;122.10;;;36.17;;
19985;SDS011;10154;52.474;10.768;2022-12-01T00:29:26;138.07;;;39.97;;
19985;SDS011;10154;52.474;10.768;2022-12-01T00:31:52;124.87;;;37.80;;
19985;SDS011;10154;52.474;10.768;2022-12-01T00:34:22;148.27;;;40.07;;
19985;SDS011;10154;52.474;10.768;2022-12-01T00:36:49;144.00;;;39.53;;
19985;SDS011;10154;52.474;10.768;2022-12-01T00:39:14;141.90;;;39.50;;
19985;SDS011;10154;52.474;10.768;2022-12-01T00:41:40;136.47;;;39.07;;
19985;SDS011;10154;52.474;10.768;2022-12-01T00:44:05;135.50;;;37.93;;
19985;SDS011;10154;52.474;10.768;2022-12-01T00:46:30;146.93;;;42.67;;
19985;SDS011;10154;52.474;10.768;2022-12-01T00:48:56;148.27;;;41.07;;
19985;SDS011;10154;52.474;10.768;2022-12-01T00:51:21;145.00;;;37.97;;
19985;SDS011;10154;52.474;10.768;2022-12-01T00:53:47;147.20;;;42.37;;
19985;SDS011;10154;52.474;10.768;2022-12-01T00:56:12;150.70;;;40.80;;
19985;SDS011;10154;52.474;10.768;2022-12-01T00:58:38;146.37;;;38.43;;
19985;SDS011;10154;52.474;10.768;2022-12-01T01:01:04;133.83;;;34.97;;
19985;SDS011;10154;52.474;10.768;2022-12-01T01:03:30;136.00;;;35.40;;
19985;SDS011;10154;52.474;10.768;2022-12-01T01:06:02;133.17;;;35.63;;
19985;SDS011;10154;52.474;10.768;2022-12-01T01:08:34;135.80;;;36.87;;
19985;SDS011;10154;52.474;10.768;2022-12-01T01:11:00;120.27;;;33.57;;
19985;SDS011;10154;52.474;10.768;2022-12-01T01:13:26;118.57;;;33.27;;
19985;SDS011;10154;52.474;10.768;2022-12-01T01:15:59;126.87;;;33.23;;
19985;SDS011;10154;52.474;10.768;2022-12-01T01:18:26;128.47;;;35.23;;
19985;SDS011;10154;52.474;10.768;2022-12-01T01:20:59;123.77;;;33.33;;
19985;SDS011;10154;52.474;10.768;2022-12-01T01:23:27;124.80;;;32.60;;
19985;SDS011;10154;52.474;10.768;2022-12-01T01:25:52;117.73;;;32.10;;
19985;SDS011;10154;52.474;10.768;2022-12-01T01:28:18;124.80;;;33.47;;
19985;SDS011;10154;52.474;10.768;2022-12-01T01:30:44;129.20;;;33.70;;
19985;SDS011;10154;52.474;10.768;2022-12-01T01:33:10;118.00;;;33.27;;
19985;SDS011;10154;52.474;10.768;2022-12-01T01:35:35;118.20;;;32.60;;
19985;SDS011;10154;52.474;10.768;2022-12-01T01:38:00;120.93;;;33.47;;
19985;SDS011;10154;52.474;10.768;2022-12-01T01:40:26;119.43;;;32.50;;
19985;SDS011;10154;52.474;10.768;2022-12-01T01:42:51;117.30;;;33.67;;
19985;SDS011;10154;52.474;10.768;2022-12-01T01:45:21;114.00;;;32.47;;
19985;SDS011;10154;52.474;10.768;2022-12-01T01:47:49;123.43;;;32.47;;
19985;SDS011;10154;52.474;10.768;2022-12-01T01:50:17;109.90;;;31.50;;
19985;SDS011;10154;52.474;10.768;2022-12-01T01:52:46;111.93;;;31.40;;
19985;SDS011;10154;52.474;10.768;2022-12-01T01:55:15;127.70;;;33.10;;
19985;SDS011;10154;52.474;10.768;2022-12-01T01:57:41;122.97;;;33.50;;
19985;SDS011;10154;52.474;10.768;2022-12-01T02:00:08;117.90;;;31.77;;
19985;SDS011;10154;52.474;10.768;2022-12-01T02:02:36;126.60;;;31.97;;
19985;SDS011;10154;52.474;10.768;2022-12-01T02:05:04;125.90;;;34.77;;
19985;SDS011;10154;52.474;10.768;2022-12-01T02:07:34;126.03;;;33.13;;
19985;SDS011;10154;52.474;10.768;2022-12-01T02:10:05;124.30;;;32.47;;
19985;SDS011;10154;52.474;10.768;2022-12-01T02:12:41;116.03;;;32.17;;
19985;SDS011;10154;52.474;10.768;2022-12-01T02:15:21;116.40;;;31.87;;
19985;SDS011;10154;52.474;10.768;2022-12-01T02:27:04;127.43;;;32.50;;
19985;SDS011;10154;52.474;10.768;2022-12-01T02:29:36;119.37;;;31.13;;
19985;SDS011;10154;52.474;10.768;2022-12-01T02:35:06;114.77;;;32.13;;
19985;SDS011;10154;52.474;10.768;2022-12-01T02:45:53;106.93;;;29.83;;
19985;SDS011;10154;52.474;10.768;2022-12-01T02:51:09;104.87;;;29.97;;
19985;SDS011;10154;52.474;10.768;2022-12-01T02:53:40;116.57;;;31.10;;
19985;SDS011;10154;52.474;10.768;2022-12-01T02:56:08;106.77;;;30.00;;
19985;SDS011;10154;52.474;10.768;2022-12-01T02:58:35;109.43;;;29.37;;
19985;SDS011;10154;52.474;10.768;2022-12-01T03:09:13;92.17;;;27.30;;
19985;SDS011;10154;52.474;10.768;2022-12-01T03:17:51;104.90;;;28.60;;
19985;SDS011;10154;52.474;10.768;2022-12-01T03:20:36;114.20;;;28.53;;
19985;SDS011;10154;52.474;10.768;2022-12-01T03:23:16;118.00;;;30.37;;
19985;SDS011;10154;52.474;10.768;2022-12-01T03:25:44;109.93;;;27.67;;
19985;SDS011;10154;52.474;10.768;2022-12-01T03:28:13;111.37;;;28.03;;
19985;SDS011;10154;52.474;10.768;2022-12-01T03:30:41;105.90;;;26.90;;
19985;SDS011;10154;52.474;10.768;2022-12-01T03:33:12;107.77;;;27.77;;
19985;SDS011;10154;52.474;10.768;2022-12-01T03:35:51;101.57;;;27.33;;
19985;SDS011;10154;52.474;10.768;2022-12-01T03:38:26;102.67;;;26.40;;
19985;SDS011;10154;52.474;10.768;2022-12-01T03:40:57;97.53;;;24.90;;
19985;SDS011;10154;52.474;10.768;2022-12-01T03:43:30;96.97;;;24.40;;
19985;SDS011;10154;52.474;10.768;2022-12-01T03:46:02;95.17;;;24.63;;
19985;SDS011;10154;52.474;10.768;2022-12-01T03:48:38;90.00;;;24.40;;
19985;SDS011;10154;52.474;10.768;2022-12-01T03:51:08;88.17;;;23.83;;
19985;SDS011;10154;52.474;10.768;2022-12-01T03:56:46;88.87;;;25.00;;
19985;SDS011;10154;52.474;10.768;2022-12-01T03:59:14;94.03;;;25.27;;
19985;SDS011;10154;52.474;10.768;2022-12-01T04:01:40;86.70;;;24.27;;
19985;SDS011;10154;52.474;10.768;2022-12-01T04:04:07;100.63;;;26.80;;
19985;SDS011;10154;52.474;10.768;2022-12-01T04:06:34;89.57;;;24.57;;
19985;SDS011;10154;52.474;10.768;2022-12-01T04:08:59;92.20;;;24.83;;
19985;SDS011;10154;52.474;10.768;2022-12-01T04:11:24;107.13;;;26.67;;
19985;SDS011;10154;52.474;10.768;2022-12-01T04:14:08;111.00;;;26.00;;
19985;SDS011;10154;52.474;10.768;2022-12-01T04:16:33;106.53;;;27.17;;
19985;SDS011;10154;52.474;10.768;2022-12-01T04:18:59;94.77;;;25.93;;
19985;SDS011;10154;52.474;10.768;2022-12-01T04:21:24;104.33;;;25.73;;
19985;SDS011;10154;52.474;10.768;2022-12-01T04:23:49;99.10;;;26.67;;
19985;SDS011;10154;52.474;10.768;2022-12-01T04:26:24;91.73;;;25.10;;
19985;SDS011;10154;52.474;10.768;2022-12-01T04:28:49;97.33;;;25.73;;
19985;SDS011;10154;52.474;10.768;2022-12-01T04:31:20;92.70;;;25.57;;
19985;SDS011;10154;52.474;10.768;2022-12-01T04:33:45;94.67;;;25.23;;
19985;SDS011;10154;52.474;10.768;2022-12-01T04:36:11;89.67;;;23.10;;
19985;SDS011;10154;52.474;10.768;2022-12-01T04:38:36;84.93;;;24.03;;
19985;SDS011;10154;52.474;10.768;2022-12-01T04:41:11;82.07;;;23.87;;
19985;SDS011;10154;52.474;10.768;2022-12-01T04:43:37;95.73;;;24.73;;
19985;SDS011;10154;52.474;10.768;2022-12-01T04:46:03;83.00;;;24.63;;
19985;SDS011;10154;52.474;10.768;2022-12-01T04:48:30;101.70;;;26.10;;
19985;SDS011;10154;52.474;10.768;2022-12-01T04:50:55;97.97;;;26.50;;
19985;SDS011;10154;52.474;10.768;2022-12-01T04:53:21;96.23;;;24.93;;
19985;SDS011;10154;52.474;10.768;2022-12-01T04:55:46;105.80;;;26.00;;
19985;SDS011;10154;52.474;10.768;2022-12-01T04:58:11;111.07;;;27.83;;
19985;SDS011;10154;52.474;10.768;2022-12-01T05:00:37;105.67;;;26.87;;
19985;SDS011;10154;52.474;10.768;2022-12-01T05:03:02;100.30;;;26.53;;
19985;SDS011;10154;52.474;10.768;2022-12-01T05:05:28;92.03;;;23.77;;
19985;SDS011;10154;52.474;10.768;2022-12-01T05:07:54;86.50;;;23.67;;
19985;SDS011;10154;52.474;10.768;2022-12-01T05:10:20;92.80;;;24.77;;
19985;SDS011;10154;52.474;10.768;2022-12-01T05:12:46;86.53;;;24.37;;
19985;SDS011;10154;52.474;10.768;2022-12-01T05:15:11;81.20;;;23.23;;
19985;SDS011;10154;52.474;10.768;2022-12-01T05:17:37;83.10;;;22.87;;
19985;SDS011;10154;52.474;10.768;2022-12-01T05:20:02;82.27;;;22.90;;
19985;SDS011;10154;52.474;10.768;2022-12-01T05:22:47;92.00;;;22.97;;
19985;SDS011;10154;52.474;10.768;2022-12-01T05:25:12;86.13;;;22.40;;
19985;SDS011;10154;52.474;10.768;2022-12-01T05:27:38;89.13;;;24.40;;
19985;SDS011;10154;52.474;10.768;2022-12-01T05:30:03;80.70;;;22.70;;
19985;SDS011;10154;52.474;10.768;2022-12-01T05:32:31;79.93;;;22.77;;
19985;SDS011;10154;52.474;10.768;2022-12-01T05:34:56;90.80;;;23.53;;
19985;SDS011;10154;52.474;10.768;2022-12-01T05:37:22;92.23;;;24.07;;
19985;SDS011;10154;52.474;10.768;2022-12-01T05:39:47;93.13;;;23.77;;
19985;SDS011;10154;52.474;10.768;2022-12-01T05:42:12;89.47;;;24.57;;
19985;SDS011;10154;52.474;10.768;2022-12-01T05:44:38;95.13;;;25.90;;
19985;SDS011;10154;52.474;10.768;2022-12-01T05:47:03;89.97;;;23.83;;
19985;SDS011;10154;52.474;10.768;2022-12-01T05:49:28;103.37;;;24.93;;
19985;SDS011;10154;52.474;10.768;2022-12-01T05:51:53;109.77;;;26.63;;
19985;SDS011;10154;52.474;10.768;2022-12-01T05:54:19;117.67;;;27.87;;
19985;SDS011;10154;52.474;10.768;2022-12-01T05:56:44;116.97;;;27.60;;
19985;SDS011;10154;52.474;10.768;2022-12-01T05:59:10;107.27;;;25.13;;
19985;SDS011;10154;52.474;10.768;2022-12-01T06:01:35;101.40;;;25.97;;
19985;SDS011;10154;52.474;10.768;2022-12-01T06:04:00;110.40;;;26.60;;
19985;SDS011;10154;52.474;10.768;2022-12-01T06:06:26;110.30;;;26.37;;
19985;SDS011;10154;52.474;10.768;2022-12-01T06:08:51;112.27;;;25.57;;
19985;SDS011;10154;52.474;10.768;2022-12-01T06:11:16;106.47;;;26.20;;
19985;SDS011;10154;52.474;10.768;2022-12-01T06:13:42;111.73;;;26.47;;
19985;SDS011;10154;52.474;10.768;2022-12-01T06:16:07;117.97;;;28.00;;
19985;SDS011;10154;52.474;10.768;2022-12-01T06:18:34;106.83;;;25.90;;
19985;SDS011;10154;52.474;10.768;2022-12-01T06:21:01;113.17;;;27.30;;
19985;SDS011;10154;52.474;10.768;2022-12-01T06:23:26;114.43;;;26.80;;
19985;SDS011;10154;52.474;10.768;2022-12-01T06:25:51;125.30;;;27.63;;
19985;SDS011;10154;52.474;10.768;2022-12-01T06:28:17;136.87;;;28.40;;
19985;SDS011;10154;52.474;10.768;2022-12-01T06:30:43;118.27;;;27.03;;
19985;SDS011;10154;52.474;10.768;2022-12-01T06:33:08;126.43;;;26.97;;
19985;SDS011;10154;52.474;10.768;2022-12-01T06:35:34;129.80;;;28.13;;
19985;SDS011;10154;52.474;10.768;2022-12-01T06:38:00;127.27;;;27.70;;
19985;SDS011;10154;52.474;10.768;2022-12-01T06:40:25;134.63;;;27.73;;
19985;SDS011;10154;52.474;10.768;2022-12-01T06:42:51;129.63;;;29.00;;
19985;SDS011;10154;52.474;10.768;2022-12-01T06:45:16;129.50;;;28.80;;
19985;SDS011;10154;52.474;10.768;2022-12-01T06:47:42;118.50;;;26.97;;
19985;SDS011;10154;52.474;10.768;2022-12-01T06:50:07;131.03;;;27.33;;
19985;SDS011;10154;52.474;10.768;2022-12-01T06:52:34;126.57;;;28.30;;
19985;SDS011;10154;52.474;10.768;2022-12-01T06:55:00;125.37;;;27.20;;
19985;SDS011;10154;52.474;10.768;2022-12-01T06:57:28;109.63;;;25.83;;
19985;SDS011;10154;52.474;10.768;2022-12-01T06:59:53;101.57;;;23.97;;
19985;SDS011;10154;52.474;10.768;2022-12-01T07:02:19;102.67;;;24.20;;
19985;SDS011;10154;52.474;10.768;2022-12-01T07:04:44;118.33;;;26.57;;
19985;SDS011;10154;52.474;10.768;2022-12-01T07:07:09;129.63;;;26.87;;
19985;SDS011;10154;52.474;10.768;2022-12-01T07:09:36;135.53;;;27.00;;
19985;SDS011;10154;52.474;10.768;2022-12-01T07:12:01;126.97;;;28.20;;
19985;SDS011;10154;52.474;10.768;2022-12-01T07:14:27;132.90;;;29.77;;
19985;SDS011;10154;52.474;10.768;2022-12-01T07:16:52;115.40;;;26.67;;
19985;SDS011;10154;52.474;10.768;2022-12-01T07:19:18;133.07;;;28.63;;
19985;SDS011;10154;52.474;10.768;2022-12-01T07:21:43;142.77;;;27.67;;
19985;SDS011;10154;52.474;10.768;2022-12-01T07:24:09;137.47;;;29.50;;
19985;SDS011;10154;52.474;10.768;2022-12-01T07:26:36;137.93;;;29.13;;
19985;SDS011;10154;52.474;10.768;2022-12-01T07:29:02;132.33;;;27.87;;
19985;SDS011;10154;52.474;10.768;2022-12-01T07:31:27;140.67;;;28.93;;
19985;SDS011;10154;52.474;10.768;2022-12-01T07:33:53;143.10;;;30.13;;
19985;SDS011;10154;52.474;10.768;2022-12-01T07:36:21;138.07;;;30.43;;
19985;SDS011;10154;52.474;10.768;2022-12-01T07:38:49;138.70;;;29.43;;
19985;SDS011;10154;52.474;10.768;2022-12-01T07:41:18;146.03;;;29.03;;
19985;SDS011;10154;52.474;10.768;2022-12-01T07:43:45;142.60;;;30.60;;
19985;SDS011;10154;52.474;10.768;2022-12-01T07:48:38;135.67;;;29.53;;
19985;SDS011;10154;52.474;10.768;2022-12-01T07:51:07;139.03;;;30.57;;
19985;SDS011;10154;52.474;10.768;2022-12-01T07:53:36;136.60;;;30.10;;
19985;SDS011;10154;52.474;10.768;2022-12-01T07:56:03;127.27;;;28.60;;
19985;SDS011;10154;52.474;10.768;2022-12-01T07:58:29;136.23;;;29.17;;
19985;SDS011;10154;52.474;10.768;2022-12-01T08:00:56;133.07;;;29.27;;
19985;SDS011;10154;52.474;10.768;2022-12-01T08:03:22;146.20;;;30.67;;
19985;SDS011;10154;52.474;10.768;2022-12-01T08:05:59;140.10;;;30.67;;
19985;SDS011;10154;52.474;10.768;2022-12-01T08:08:30;135.83;;;28.80;;
19985;SDS011;10154;52.474;10.768;2022-12-01T08:11:04;128.23;;;28.50;;
19985;SDS011;10154;52.474;10.768;2022-12-01T08:13:37;123.60;;;27.47;;
19985;SDS011;10154;52.474;10.768;2022-12-01T08:16:06;107.97;;;25.47;;
19985;SDS011;10154;52.474;10.768;2022-12-01T08:18:33;115.30;;;27.70;;
19985;SDS011;10154;52.474;10.768;2022-12-01T08:21:02;111.47;;;25.47;;
19985;SDS011;10154;52.474;10.768;2022-12-01T08:23:27;90.17;;;23.47;;
19985;SDS011;10154;52.474;10.768;2022-12-01T08:25:53;82.97;;;22.60;;
19985;SDS011;10154;52.474;10.768;2022-12-01T08:28:18;83.50;;;23.13;;
19985;SDS011;10154;52.474;10.768;2022-12-01T08:30:44;89.27;;;22.83;;
19985;SDS011;10154;52.474;10.768;2022-12-01T08:33:10;87.90;;;22.47;;
19985;SDS011;10154;52.474;10.768;2022-12-01T08:35:35;88.23;;;23.77;;
19985;SDS011;10154;52.474;10.768;2022-12-01T08:38:01;79.83;;;21.40;;
19985;SDS011;10154;52.474;10.768;2022-12-01T08:40:26;75.17;;;20.60;;
19985;SDS011;10154;52.474;10.768;2022-12-01T08:42:51;82.53;;;22.27;;
19985;SDS011;10154;52.474;10.768;2022-12-01T08:45:17;78.93;;;22.00;;
19985;SDS011;10154;52.474;10.768;2022-12-01T08:47:43;81.17;;;21.33;;
19985;SDS011;10154;52.474;10.768;2022-12-01T08:50:09;75.50;;;19.53;;
19985;SDS011;10154;52.474;10.768;2022-12-01T08:52:35;72.23;;;20.77;;
19985;SDS011;10154;52.474;10.768;2022-12-01T08:55:00;81.60;;;21.17;;
19985;SDS011;10154;52.474;10.768;2022-12-01T08:57:30;87.10;;;22.90;;
19985;SDS011;10154;52.474;10.768;2022-12-01T08:59:55;87.43;;;22.33;;
19985;SDS011;10154;52.474;10.768;2022-12-01T09:02:20;88.20;;;22.07;;
19985;SDS011;10154;52.474;10.768;2022-12-01T09:04:46;93.30;;;23.40;;
19985;SDS011;10154;52.474;10.768;2022-12-01T09:07:11;89.20;;;22.67;;
19985;SDS011;10154;52.474;10.768;2022-12-01T09:09:40;91.83;;;23.47;;
19985;SDS011;10154;52.474;10.768;2022-12-01T09:12:06;97.07;;;24.17;;
19985;SDS011;10154;52.474;10.768;2022-12-01T09:14:35;103.60;;;26.63;;
19985;SDS011;10154;52.474;10.768;2022-12-01T09:17:05;97.40;;;24.90;;
19985;SDS011;10154;52.474;10.768;2022-12-01T09:19:31;94.97;;;24.23;;
19985;SDS011;10154;52.474;10.768;2022-12-01T09:21:56;97.47;;;25.60;;
19985;SDS011;10154;52.474;10.768;2022-12-01T09:24:22;97.87;;;24.77;;
19985;SDS011;10154;52.474;10.768;2022-12-01T09:26:47;99.33;;;23.23;;
19985;SDS011;10154;52.474;10.768;2022-12-01T09:29:13;98.87;;;24.10;;
19985;SDS011;10154;52.474;10.768;2022-12-01T09:31:40;98.23;;;23.57;;
19985;SDS011;10154;52.474;10.768;2022-12-01T09:34:06;97.53;;;24.43;;
19985;SDS011;10154;52.474;10.768;2022-12-01T09:36:35;99.17;;;24.47;;
19985;SDS011;10154;52.474;10.768;2022-12-01T09:39:01;99.03;;;24.67;;
19985;SDS011;10154;52.474;10.768;2022-12-01T09:41:29;91.13;;;23.10;;
19985;SDS011;10154;52.474;10.768;2022-12-01T09:44:38;97.57;;;24.57;;
19985;SDS011;10154;52.474;10.768;2022-12-01T09:49:51;88.87;;;21.30;;
19985;SDS011;10154;52.474;10.768;2022-12-01T09:52:21;87.40;;;22.33;;
19985;SDS011;10154;52.474;10.768;2022-12-01T09:54:48;95.37;;;22.17;;
19985;SDS011;10154;52.474;10.768;2022-12-01T09:57:15;102.60;;;24.63;;
19985;SDS011;10154;52.474;10.768;2022-12-01T09:59:42;88.73;;;24.10;;
19985;SDS011;10154;52.474;10.768;2022-12-01T10:02:30;90.80;;;23.03;;
19985;SDS011;10154;52.474;10.768;2022-12-01T10:05:04;95.47;;;24.00;;
19985;SDS011;10154;52.474;10.768;2022-12-01T10:07:35;88.10;;;22.87;;
19985;SDS011;10154;52.474;10.768;2022-12-01T10:12:50;96.10;;;22.60;;
19985;SDS011;10154;52.474;10.768;2022-12-01T10:18:19;87.97;;;23.47;;
19985;SDS011;10154;52.474;10.768;2022-12-01T10:21:02;86.03;;;22.27;;
19985;SDS011;10154;52.474;10.768;2022-12-01T10:26:49;81.70;;;20.93;;
19985;SDS011;10154;52.474;10.768;2022-12-01T10:31:52;77.93;;;21.67;;
19985;SDS011;10154;52.474;10.768;2022-12-01T10:34:27;86.17;;;22.90;;
19985;SDS011;10154;52.474;10.768;2022-12-01T10:36:55;78.53;;;21.30;;
19985;SDS011;10154;52.474;10.768;2022-12-01T10:39:24;93.93;;;23.77;;
19985;SDS011;10154;52.474;10.768;2022-12-01T10:41:54;82.70;;;21.20;;
19985;SDS011;10154;52.474;10.768;2022-12-01T10:44:24;89.77;;;22.77;;
19985;SDS011;10154;52.474;10.768;2022-12-01T10:46:53;93.60;;;22.83;;
19985;SDS011;10154;52.474;10.768;2022-12-01T10:49:19;88.80;;;22.40;;
19985;SDS011;10154;52.474;10.768;2022-12-01T10:51:47;98.30;;;23.00;;
19985;SDS011;10154;52.474;10.768;2022-12-01T10:54:16;95.07;;;24.17;;
19985;SDS011;10154;52.474;10.768;2022-12-01T10:56:42;91.37;;;24.20;;
19985;SDS011;10154;52.474;10.768;2022-12-01T10:59:20;88.73;;;22.87;;
19985;SDS011;10154;52.474;10.768;2022-12-01T11:01:50;85.63;;;22.03;;
19985;SDS011;10154;52.474;10.768;2022-12-01T11:04:28;97.13;;;23.73;;
19985;SDS011;10154;52.474;10.768;2022-12-01T11:06:57;97.87;;;25.00;;
19985;SDS011;10154;52.474;10.768;2022-12-01T11:09:23;94.50;;;24.07;;
19985;SDS011;10154;52.474;10.768;2022-12-01T11:11:55;95.63;;;24.20;;
19985;SDS011;10154;52.474;10.768;2022-12-01T11:14:23;91.07;;;22.23;;
19985;SDS011;10154;52.474;10.768;2022-12-01T11:17:16;95.30;;;23.13;;
19985;SDS011;10154;52.474;10.768;2022-12-01T11:19:50;93.70;;;23.00;;
19985;SDS011;10154;52.474;10.768;2022-12-01T11:22:20;99.40;;;25.40;;
19985;SDS011;10154;52.474;10.768;2022-12-01T11:24:57;88.90;;;23.23;;
19985;SDS011;10154;52.474;10.768;2022-12-01T11:27:34;92.07;;;24.00;;
19985;SDS011;10154;52.474;10.768;2022-12-01T11:30:04;96.50;;;24.00;;
19985;SDS011;10154;52.474;10.768;2022-12-01T11:32:33;93.20;;;24.00;;
19985;SDS011;10154;52.474;10.768;2022-12-01T11:37:35;81.10;;;22.47;;
19985;SDS011;10154;52.474;10.768;2022-12-01T11:40:03;89.70;;;22.40;;
19985;SDS011;10154;52.474;10.768;2022-12-01T11:42:31;90.63;;;24.07;;
19985;SDS011;10154;52.474;10.768;2022-12-01T11:47:29;102.70;;;25.77;;
19985;SDS011;10154;52.474;10.768;2022-12-01T11:49:55;105.60;;;26.17;;
19985;SDS011;10154;52.474;10.768;2022-12-01T11:52:27;108.60;;;25.50;;
19985;SDS011;10154;52.474;10.768;2022-12-01T11:57:23;102.23;;;24.97;;
19985;SDS011;10154;52.474;10.768;2022-12-01T11:59:49;107.77;;;25.83;;
19985;SDS011;10154;52.474;10.768;2022-12-01T12:05:03;99.20;;;24.63;;
19985;SDS011;10154;52.474;10.768;2022-12-01T12:16:02;114.47;;;26.13;;
19985;SDS011;10154;52.474;10.768;2022-12-01T12:26:22;116.73;;;26.70;;
19985;SDS011;10154;52.474;10.768;2022-12-01T12:32:09;115.37;;;26.27;;
19985;SDS011;10154;52.474;10.768;2022-12-01T12:40:53;103.27;;;25.10;;
19985;SDS011;10154;52.474;10.768;2022-12-01T12:46:01;113.10;;;26.03;;
19985;SDS011;10154;52.474;10.768;2022-12-01T12:48:31;122.67;;;27.53;;
19985;SDS011;10154;52.474;10.768;2022-12-01T12:51:43;119.87;;;27.10;;
19985;SDS011;10154;52.474;10.768;2022-12-01T12:56:46;115.73;;;26.03;;
19985;SDS011;10154;52.474;10.768;2022-12-01T12:59:25;114.17;;;26.30;;
19985;SDS011;10154;52.474;10.768;2022-12-01T13:05:26;136.03;;;28.10;;
19985;SDS011;10154;52.474;10.768;2022-12-01T13:07:58;123.53;;;27.67;;
19985;SDS011;10154;52.474;10.768;2022-12-01T13:10:52;127.07;;;27.80;;
19985;SDS011;10154;52.474;10.768;2022-12-01T13:15:59;139.37;;;28.63;;
19985;SDS011;10154;52.474;10.768;2022-12-01T13:21:01;130.30;;;28.17;;
19985;SDS011;10154;52.474;10.768;2022-12-01T13:23:27;121.50;;;28.57;;
19985;SDS011;10154;52.474;10.768;2022-12-01T13:25:53;120.90;;;26.90;;
19985;SDS011;10154;52.474;10.768;2022-12-01T13:28:25;125.23;;;27.77;;
19985;SDS011;10154;52.474;10.768;2022-12-01T13:31:12;113.20;;;26.13;;
19985;SDS011;10154;52.474;10.768;2022-12-01T13:33:52;125.03;;;28.30;;
19985;SDS011;10154;52.474;10.768;2022-12-01T13:36:18;124.97;;;28.60;;
19985;SDS011;10154;52.474;10.768;2022-12-01T13:38:51;115.23;;;28.67;;
19985;SDS011;10154;52.474;10.768;2022-12-01T13:41:24;116.47;;;28.17;;
19985;SDS011;10154;52.474;10.768;2022-12-01T13:46:26;108.57;;;26.23;;
19985;SDS011;10154;52.474;10.768;2022-12-01T13:55:02;112.77;;;27.57;;
19985;SDS011;10154;52.474;10.768;2022-12-01T14:00:27;113.63;;;28.10;;
19985;SDS011;10154;52.474;10.768;2022-12-01T14:11:04;113.07;;;28.30;;
19985;SDS011;10154;52.474;10.768;2022-12-01T14:13:44;119.07;;;28.57;;
19985;SDS011;10154;52.474;10.768;2022-12-01T14:16:13;129.00;;;28.73;;
19985;SDS011;10154;52.474;10.768;2022-12-01T14:18:40;116.93;;;28.80;;
19985;SDS011;10154;52.474;10.768;2022-12-01T14:21:12;108.03;;;27.13;;
19985;SDS011;10154;52.474;10.768;2022-12-01T14:23:39;114.47;;;27.53;;
19985;SDS011;10154;52.474;10.768;2022-12-01T14:26:26;112.10;;;27.73;;
19985;SDS011;10154;52.474;10.768;2022-12-01T14:31:19;120.63;;;29.93;;
19985;SDS011;10154;52.474;10.768;2022-12-01T14:33:52;121.47;;;27.63;;
19985;SDS011;10154;52.474;10.768;2022-12-01T14:36:42;117.27;;;27.43;;
19985;SDS011;10154;52.474;10.768;2022-12-01T14:41:49;116.67;;;27.87;;
19985;SDS011;10154;52.474;10.768;2022-12-01T14:44:26;114.20;;;27.00;;
19985;SDS011;10154;52.474;10.768;2022-12-01T14:49:37;109.43;;;26.47;;
19985;SDS011;10154;52.474;10.768;2022-12-01T14:52:08;112.67;;;27.60;;
19985;SDS011;10154;52.474;10.768;2022-12-01T14:54:42;100.90;;;26.23;;
19985;SDS011;10154;52.474;10.768;2022-12-01T14:57:10;112.83;;;27.50;;
19985;SDS011;10154;52.474;10.768;2022-12-01T14:59:40;126.80;;;28.23;;
19985;SDS011;10154;52.474;10.768;2022-12-01T15:02:05;124.00;;;28.93;;
19985;SDS011;10154;52.474;10.768;2022-12-01T15:07:37;119.33;;;29.47;;
19985;SDS011;10154;52.474;10.768;2022-12-01T15:10:04;112.93;;;28.00;;
19985;SDS011;10154;52.474;10.768;2022-12-01T15:12:30;122.00;;;27.93;;
19985;SDS011;10154;52.474;10.768;2022-12-01T15:14:56;115.60;;;28.20;;
19985;SDS011;10154;52.474;10.768;2022-12-01T15:17:29;122.50;;;27.90;;
19985;SDS011;10154;52.474;10.768;2022-12-01T15:19:56;119.23;;;27.90;;
19985;SDS011;10154;52.474;10.768;2022-12-01T15:22:22;114.50;;;27.23;;
19985;SDS011;10154;52.474;10.768;2022-12-01T15:24:53;130.07;;;28.57;;
19985;SDS011;10154;52.474;10.768;2022-12-01T15:27:28;118.57;;;28.83;;
19985;SDS011;10154;52.474;10.768;2022-12-01T15:29:56;118.03;;;28.47;;
19985;SDS011;10154;52.474;10.768;2022-12-01T15:32:22;123.40;;;29.80;;
19985;SDS011;10154;52.474;10.768;2022-12-01T15:34:52;112.23;;;26.93;;
19985;SDS011;10154;52.474;10.768;2022-12-01T15:37:20;122.00;;;28.00;;
19985;SDS011;10154;52.474;10.768;2022-12-01T15:44:58;116.87;;;26.17;;
19985;SDS011;10154;52.474;10.768;2022-12-01T15:47:32;116.87;;;26.77;;
19985;SDS011;10154;52.474;10.768;2022-12-01T15:49:57;97.60;;;25.63;;
19985;SDS011;10154;52.474;10.768;2022-12-01T15:52:22;106.03;;;25.13;;
19985;SDS011;10154;52.474;10.768;2022-12-01T15:54:48;99.30;;;26.20;;
19985;SDS011;10154;52.474;10.768;2022-12-01T15:57:18;102.10;;;26.13;;
19985;SDS011;10154;52.474;10.768;2022-12-01T15:59:44;102.70;;;25.67;;
19985;SDS011;10154;52.474;10.768;2022-12-01T16:02:17;100.67;;;26.00;;
19985;SDS011;10154;52.474;10.768;2022-12-01T16:04:47;96.60;;;24.87;;
19985;SDS011;10154;52.474;10.768;2022-12-01T16:07:13;100.43;;;23.70;;
19985;SDS011;10154;52.474;10.768;2022-12-01T16:09:40;113.43;;;25.60;;
19985;SDS011;10154;52.474;10.768;2022-12-01T16:12:27;95.50;;;22.13;;
19985;SDS011;10154;52.474;10.768;2022-12-01T16:15:04;95.53;;;23.67;;
19985;SDS011;10154;52.474;10.768;2022-12-01T16:17:41;92.07;;;23.40;;
19985;SDS011;10154;52.474;10.768;2022-12-01T16:22:48;94.97;;;22.90;;
19985;SDS011;10154;52.474;10.768;2022-12-01T16:28:06;96.10;;;24.17;;
19985;SDS011;10154;52.474;10.768;2022-12-01T16:30:35;95.50;;;23.23;;
19985;SDS011;10154;52.474;10.768;2022-12-01T16:33:18;100.07;;;24.83;;
19985;SDS011;10154;52.474;10.768;2022-12-01T16:35:48;111.57;;;26.20;;
19985;SDS011;10154;52.474;10.768;2022-12-01T16:38:16;103.43;;;24.13;;
19985;SDS011;10154;52.474;10.768;2022-12-01T16:40:45;111.33;;;26.87;;